AirNav   Air Wisconsin Up To $57,000 Bonus
 
 1270 users online  

8MA4 Crow Island Airport
Stow, Massachusetts, USA

GOING TO STOW?


FAA INFORMATION EFFECTIVE 25 MARCH 2021

Location

FAA Identifier: 8MA4
Lat/Long: 42-25-02.0000N 071-29-40.0000W
42-25.033333N 071-29.666667W
42.4172222,-71.4944444
(estimated)
Elevation: 185 ft. / 56 m (estimated)
From city: 2 miles S of STOW, MA
Time zone: UTC -4 (UTC -5 during Standard Time)
Zip code: 01775

Airport Operations

Airport use: Private use. Permission required prior to landing
Activation date: 10/2012
Control tower: no
ARTCC: BOSTON CENTER
FSS: BRIDGEPORT FLIGHT SERVICE STATION
Attendance: UNATNDD
Wind indicator: yes
Segmented circle: no

Airport Communications

WX ASOS at BED (10 nm E): 124.6 (781-274-9733)
WX ASOS at FIT (14 nm NW): 135.175 (978-343-9121)
WX ASOS at ORH (19 nm SW): PHONE 508-795-7546
WX ASOS at OWD (20 nm SE): 119.95 (781-762-4314)
  • FREQ:122.9

Nearby radio navigation aids

VOR radial/distance  VOR name  Freq  Var
BOSr295/22.7BOSTON VOR/DME112.7016W
GDMr121/26.1GARDNER VOR/DME110.6014W
LWMr237/26.2LAWRENCE VOR/DME112.5015W
MHTr207/27.6MANCHESTER VOR/DME114.4015W
PUTr043/31.8PUTNAM VOR/DME117.4014W

Airport Services

Runway Information

Runway 11/29

Dimensions: 2350 x 180 ft. / 716 x 55 m
Surface: turf
RUNWAY 11  RUNWAY 29
Traffic pattern: leftright

Runway 12W/30W

Dimensions: 3000 x 30 ft. / 914 x 9 m
Surface: water
ASSABET RIVER. RWY 12W/30W EST ELEV 165 FT.
RUNWAY 12W  RUNWAY 30W
Traffic pattern: leftleft

Airport Ownership and Management from official FAA records

Ownership: Privately-owned
Owner: ROBERT ALBRIGHT
84 BOXBOROUGH ROAD
STOW, MA 01775
Phone 978-897-5220
Manager: ROBERT ALBRIGHT
84 BOXBOROUGH ROAD
STOW, MA 01775
Phone 978-897-5220
CELL OFFICE

Airport Operational Statistics

Aircraft based on the field: 48
Single engine airplanes: 40
Ultralights: 8
    

Additional Remarks

FOR CD CTC BOSTON APCH AT 603-594-5551.

Instrument Procedures

There are no published instrument procedures at 8MA4.

Some nearby airports with instrument procedures:

6B6 - Minute Man Air Field (3 nm N)
KBED - Laurence G Hanscom Field Airport (10 nm E)
KFIT - Fitchburg Municipal Airport (14 nm NW)
1B6 - Hopedale Industrial Park Airport (19 nm S)
KORH - Worcester Regional Airport (19 nm SW)
KOWD - Norwood Memorial Airport (20 nm SE)
 
Loc | Ops | Rwys | IFR | FBO | Links
Com | Nav | Svcs | Stats | Notes
Aerial photo
WARNING: Photo may not be current or correct
Aerial photo of 8MA4 (Crow Island Airport)
Photo by Nathan May
Taken in the Summer of 2010
looking west southwest.

Do you have a better or more recent aerial photo of Crow Island Airport that you would like to share? If so, please send us your photo.

 
Airport distance calculator
Flying to Crow Island Airport? Find the distance to fly.

From to 8MA4

Sunrise and sunset
Times for 17-Apr-2021
 Local
(UTC-4)
 Zulu
(UTC)
Morning civil twilight05:3309:33
Sunrise06:0310:03
Sunset19:2823:28
Evening civil twilight19:5823:58

Current date and time
Zulu (UTC)  17-Apr-2021 15:46:39
Local (UTC-4)  17-Apr-2021 11:46:39
 
METAR
KBED 
9nm E 
171458Z 34006KT 6SM -RA BR BKN012 OVC020 04/02 A2972 RMK AO2 P0001 T00390017 $
KFIT 
14nm NW 
171506Z AUTO 36009KT 10SM SCT023 BKN028 OVC060 06/01 A2973 RMK AO2 T00560011
KORH 
19nm SW 
171454Z 34008KT 10SM FEW016 SCT023 OVC038 04/00 A2971 RMK AO2 RAE02B43E53 SLP069 P0000 60000 T00390000 53010
TAF
KBED 
9nm E 
171120Z 1712/1812 33009KT P6SM VCSH OVC015 FM171400 34009KT P6SM VCSH OVC010 FM171600 34009KT P6SM OVC015 FM172200 34005KT P6SM OVC030 FM180000 35004KT P6SM OVC035 FM180600 00000KT 3SM BR OVC045
KORH 
19nm SW 
171120Z 1712/1812 33008KT P6SM OVC015 FM171600 33008KT P6SM OVC020 FM172000 33008KT P6SM OVC035 FM172300 33005KT P6SM BKN045 FM180500 30004KT 5SM BR BKN050
NOTAMs
Click for the latest NOTAMs
NOTAMs are issued by the DoD/FAA and will open in a separate window not controlled by AirNav.

 

 
 

Would you like to see your business listed on this page?

 If your business provides an interesting product or service to pilots, flight crews, aircraft, or users of the Crow Island Airport, you should consider listing it here.  To start the listing process, click on the button below
 
Add a business
 

Other Pages about Crow Island Airport

Update a link
 
Copyright © AirNav, LLC. All rights reserved. Privacy Policy  Contact